Lone Rock, IA (50559)

12:16 AM CDT on May 01, 2017 (GMT -0500)
ME0342 | | Change Station

Elev 1233 ft 43.16 °N, 94.36 °W | Updated 6 minutes ago

Overcast
Overcast
40.0 °F
Feels Like 40 °F
N
0.0
Wind Variable Wind from ENE
Gusts 7.0 mph

Today
High -- | Low -- °F
--% Chance of Precip.
Yesterday
High -- | Low -- °F
Precip. -- in
Pressure 29.53 in
Visibility 10.0 miles
Clouds Overcast 1000 ft
Windchill 40 °F
Dew Point 39 °F
Humidity 97%
Rainfall 0.70 in
Snow Depth Not available.
6:10 AM 8:19 PM
Waxing Crescent, 29% visible
METAR KAXA 010455Z AUTO 05013KT 10SM OVC010 05/05 A2953 RMK AO2
Pressure 29.53 in
Visibility 10.0 miles
Clouds Overcast 1000 ft
Windchill 40 °F
Dew Point 39 °F
Humidity 97%
Rainfall 0.70 in
Snow Depth Not available.
6:10 AM 8:19 PM
Waxing Crescent, 29% visible
METAR KAXA 010455Z AUTO 05013KT 10SM OVC010 05/05 A2953 RMK AO2

Get Severe Weather Alerts

Thanks for signing up!

Be on the lookout for a verification email in your inbox.

You'll start receiving the daily forecast at 8 AM.

×

10-Day Weather Forecast

Almanac

Astronomy

May. 01, 2017 Rise Set
Actual Time
Civil Twilight
Nautical Twilight
Astronomical Twilight
Moon
Length of Visible Light
Length of Day
Tomorrow will be .
, % of the Moon is Illuminated

Today's Extremes

State Highs State Lows

Community

WunderPhotos

WunderBlog® & News

Nearby

Air Quality

  Air Quality AQ Index Pollutant
Not available.

Snow Depth

Station Depth Elevation

Earthquake Activity

City Distance Mag. Time & Date
Minimum magnitude displayed is 2.5.

Coastal Water Temperatures

Place Temperature

Stations

Nearby Weather Stations

Station Location Temp. Windchill Dew Point Humidity Wind Precip. Elev Updated Type
                   

Watches & Warnings

There are currently no watches in effect.